Airport details for: LRIA (Romania)

Metar

LRIA 301000Z 30006KT 9999 -RA OVC009 10/07 Q1018 R14/19//95

General details

ICAO: LRIA
IATA: IAS
Name (city): Iasi
Major:
Country: Romania
vACC: vACC Romania
Description:
Scenery links:
FS9 scenery:
FSX/P3D scenery:
XP scenery:
Elevation: 397 ft.
Transition altitude: 3000 ft.
MSA: 5900 ft.
Latitude: 47.178758
Longitude: 27.620045
LRIA Charts
LRIA Notams
LRIA Online stations

Runways

Number Course Length Elevation Lat Lon ILS ILS freq ILS FAC GP
15 149° 5906ft / 1800 m 397ft 47.186022 27.614797 109.1 149° 3.0°
33 329° 5906ft / 1800 m 340ft 47.171497 27.625289 - - 3.0°